Time;durP1;ratioP1;P1;durP2;ratioP2;P2;SDS_P1;SDS_P2;PMS_P1;PMS_P2;Temp;Humidity;BMP_temperature;BMP_pressure;BME280_temperature;BME280_humidity;BME280_pressure;Samples;Min_cycle;Max_cycle;Signal;HPM_P1;HPM_P2
2020/12/23 00:01:21;;;;;;;25.57;17.30;;;;;;;-2.36;88.07;101004.17;1839203;78;20934;-72
2020/12/23 00:03:49;;;;;;;27.60;19.57;;;;;;;-2.37;88.05;101005.01;1839597;77;22053;-71
2020/12/23 00:06:17;;;;;;;25.23;16.90;;;;;;;-2.40;88.15;101000.73;1845059;77;20945;-72
2020/12/23 00:08:47;;;;;;;26.82;17.25;;;;;;;-2.39;88.22;101004.13;1844973;77;20993;-72
2020/12/23 00:11:18;;;;;;;26.35;17.40;;;;;;;-2.38;88.16;101004.16;1845319;77;21495;-72
2020/12/23 00:13:46;;;;;;;25.52;16.67;;;;;;;-2.39;88.20;101001.59;1845255;77;21002;-71
2020/12/23 00:16:15;;;;;;;27.32;17.82;;;;;;;-2.39;88.27;100998.61;1845271;77;21885;-72
2020/12/23 00:18:43;;;;;;;28.23;18.70;;;;;;;-2.39;88.28;100996.48;1845176;77;21016;-71
2020/12/23 00:21:11;;;;;;;27.40;18.62;;;;;;;-2.40;88.33;100994.35;1845161;77;20996;-72
2020/12/23 00:23:40;;;;;;;31.50;19.37;;;;;;;-2.39;88.40;100993.52;1845176;77;20977;-72
2020/12/23 00:26:09;;;;;;;28.10;18.50;;;;;;;-2.38;88.26;100990.13;1845253;77;21029;-71
2020/12/23 00:28:37;;;;;;;30.88;18.40;;;;;;;-2.39;88.28;100988.41;1845228;77;21174;-72
2020/12/23 00:31:06;;;;;;;29.85;18.50;;;;;;;-2.41;88.26;100982.89;1845153;77;20942;-72
2020/12/23 00:33:34;;;;;;;30.40;19.05;;;;;;;-2.43;88.36;100987.11;1845300;77;21492;-72
2020/12/23 00:36:03;;;;;;;30.48;20.05;;;;;;;-2.41;88.49;100980.34;1845179;77;20926;-72
2020/12/23 00:38:32;;;;;;;28.32;19.35;;;;;;;-2.40;88.31;100973.13;1845280;77;21524;-72
2020/12/23 00:41:00;;;;;;;29.35;19.15;;;;;;;-2.41;87.99;100962.07;1845316;77;22130;-72
2020/12/23 00:43:29;;;;;;;29.75;20.15;;;;;;;-2.45;87.82;100962.02;1845107;77;21012;-72
2020/12/23 00:45:57;;;;;;;33.23;20.77;;;;;;;-2.48;87.91;100963.25;1845203;77;20902;-71
2020/12/23 00:48:26;;;;;;;31.73;20.37;;;;;;;-2.49;87.70;100956.02;1845162;77;20998;-72
2020/12/23 00:50:54;;;;;;;28.55;19.90;;;;;;;-2.52;87.75;100952.58;1845229;77;20942;-72
2020/12/23 00:53:22;;;;;;;31.10;19.30;;;;;;;-2.52;87.75;100947.05;1845281;77;22129;-72
2020/12/23 00:55:51;;;;;;;31.93;20.97;;;;;;;-2.52;87.69;100944.51;1845131;77;20954;-72
2020/12/23 00:58:19;;;;;;;28.47;17.90;;;;;;;-2.51;87.67;100946.64;1845204;77;20973;-71
2020/12/23 01:00:47;;;;;;;32.00;20.43;;;;;;;-2.52;87.42;100944.92;1845187;77;20921;-71
2020/12/23 01:03:16;;;;;;;31.05;20.70;;;;;;;-2.55;87.43;100943.61;1845209;77;20965;-71
2020/12/23 01:05:44;;;;;;;30.17;19.62;;;;;;;-2.57;87.44;100942.32;1840984;76;21428;-71
2020/12/23 01:08:12;;;;;;;28.40;19.62;;;;;;;-2.58;87.34;100941.02;1839224;77;20985;-71
2020/12/23 01:10:40;;;;;;;32.42;20.32;;;;;;;-2.61;87.13;100941.84;1839297;77;20943;-72
2020/12/23 01:13:09;;;;;;;33.15;20.48;;;;;;;-2.64;86.99;100928.20;1818497;78;21456;-71
2020/12/23 01:15:37;;;;;;;32.48;20.75;;;;;;;-2.65;87.05;100927.77;1839293;78;21357;-71
2020/12/23 01:18:05;;;;;;;31.97;19.60;;;;;;;-2.68;87.12;100926.03;1839250;78;21173;-72
2020/12/23 01:20:33;;;;;;;30.80;19.15;;;;;;;-2.67;87.01;100919.24;1839151;77;20977;-71
2020/12/23 01:23:02;;;;;;;35.95;21.55;;;;;;;-2.68;86.95;100910.73;1839332;78;21540;-72
2020/12/23 01:25:30;;;;;;;33.02;20.85;;;;;;;-2.71;86.93;100909.01;1839192;77;21029;-72
2020/12/23 01:27:58;;;;;;;35.85;20.60;;;;;;;-2.72;86.93;100897.10;1839250;77;20985;-71
2020/12/23 01:30:26;;;;;;;38.13;23.00;;;;;;;-2.73;86.83;100899.62;1839273;78;21361;-72
2020/12/23 01:32:55;;;;;;;36.65;22.98;;;;;;;-2.75;86.81;100897.06;1839183;78;20930;-72
2020/12/23 01:35:23;;;;;;;38.00;22.77;;;;;;;-2.76;86.70;100902.14;1839281;78;20939;-72
2020/12/23 01:37:51;;;;;;;37.38;23.07;;;;;;;-2.78;86.69;100893.20;1839216;78;20989;-70
2020/12/23 01:40:19;;;;;;;32.10;20.10;;;;;;;-2.77;86.69;100888.96;1839340;77;21578;-70
2020/12/23 01:42:48;;;;;;;37.50;21.60;;;;;;;-2.78;86.67;100882.16;1839257;77;21177;-72
2020/12/23 01:45:16;;;;;;;43.30;22.87;;;;;;;-2.81;86.67;100877.91;1839247;77;20942;-70
2020/12/23 01:47:45;;;;;;;35.13;21.97;;;;;;;-2.81;86.68;100875.77;1839355;77;21357;-70
2020/12/23 01:50:13;;;;;;;38.15;23.40;;;;;;;-2.80;86.63;100875.77;1839190;78;20974;-70
2020/12/23 01:52:42;;;;;;;35.48;22.85;;;;;;;-2.80;86.67;100868.56;1839307;77;21369;-70
2020/12/23 01:55:11;;;;;;;34.38;20.10;;;;;;;-2.80;86.59;100864.30;1839251;77;21189;-70
2020/12/23 01:57:40;;;;;;;37.30;22.75;;;;;;;-2.81;86.57;100857.94;1839187;78;21056;-71
2020/12/23 02:00:08;;;;;;;40.00;23.10;;;;;;;-2.83;86.63;100855.37;1839273;78;21052;-70
2020/12/23 02:02:45;;;;;;;39.20;23.05;;;;;;;-2.85;86.70;100853.64;1839220;77;20985;-71
2020/12/23 02:05:13;;;;;;;38.48;21.50;;;;;;;-2.85;86.78;100843.45;1792397;77;20973;-71
2020/12/23 02:07:43;;;;;;;37.93;22.40;;;;;;;-2.88;86.70;100832.80;1845241;77;22122;-71
2020/12/23 02:10:12;;;;;;;35.33;22.67;;;;;;;-2.89;86.79;100838.73;1845057;77;21435;-71
2020/12/23 02:12:41;;;;;;;40.10;24.47;;;;;;;-2.88;86.91;100829.39;1845104;77;20974;-70
2020/12/23 02:15:11;;;;;;;36.58;22.20;;;;;;;-2.87;86.87;100829.41;1845114;77;20933;-70
2020/12/23 02:17:40;;;;;;;37.83;22.50;;;;;;;-2.88;86.87;100825.57;1845104;77;21005;-71
2020/12/23 02:20:10;;;;;;;36.35;20.90;;;;;;;-2.89;86.98;100810.70;1845251;77;21360;-70
2020/12/23 02:22:39;;;;;;;36.98;22.00;;;;;;;-2.87;87.03;100816.67;1845054;77;21013;-70
2020/12/23 02:25:07;;;;;;;32.88;19.90;;;;;;;-2.85;86.98;100811.17;1845095;77;21310;-70
2020/12/23 02:27:36;;;;;;;39.03;23.45;;;;;;;-2.83;86.98;100803.55;1845091;77;20926;-70
2020/12/23 02:30:06;;;;;;;34.00;20.20;;;;;;;-2.82;86.91;100796.33;1845192;77;21412;-71
2020/12/23 02:32:34;;;;;;;36.40;20.95;;;;;;;-2.82;86.99;100801.43;1845217;77;22067;-70
2020/12/23 02:35:05;;;;;;;32.67;21.40;;;;;;;-2.81;86.98;100796.77;1845079;77;21439;-70
2020/12/23 02:37:33;;;;;;;34.75;19.98;;;;;;;-2.80;87.03;100790.84;1845192;77;21567;-70
2020/12/23 02:40:01;;;;;;;38.55;21.77;;;;;;;-2.79;86.93;100791.23;1845036;77;20993;-70
2020/12/23 02:42:30;;;;;;;31.95;19.02;;;;;;;-2.79;87.01;100792.09;1845214;77;21044;-70
2020/12/23 02:44:58;;;;;;;37.10;23.18;;;;;;;-2.77;87.03;100786.59;1845160;77;21899;-71
2020/12/23 02:47:26;;;;;;;33.53;21.27;;;;;;;-2.76;86.92;100788.72;1845030;77;20941;-72
2020/12/23 02:49:54;;;;;;;36.77;21.27;;;;;;;-2.77;86.90;100787.02;1845118;77;20914;-71
2020/12/23 02:52:23;;;;;;;34.67;21.57;;;;;;;-2.78;86.75;100794.22;1845105;77;21583;-71
2020/12/23 02:54:53;;;;;;;29.72;20.55;;;;;;;-2.81;86.86;100800.17;1845153;77;21440;-72
2020/12/23 02:57:21;;;;;;;32.23;19.00;;;;;;;-2.82;86.72;100791.23;1845025;77;21174;-72
2020/12/23 02:59:50;;;;;;;35.25;20.30;;;;;;;-2.83;86.82;100789.11;1845158;77;21052;-71
2020/12/23 03:02:18;;;;;;;33.83;22.13;;;;;;;-2.81;86.77;100787.43;1845102;77;20930;-71
2020/12/23 03:04:48;;;;;;;29.67;21.02;;;;;;;-2.79;86.70;100787.41;1844783;76;20933;-71
2020/12/23 03:07:16;;;;;;;36.80;21.12;;;;;;;-2.78;86.60;100781.48;1839215;77;20929;-70
2020/12/23 03:09:46;;;;;;;35.58;23.42;;;;;;;-2.79;86.49;100781.89;1839204;78;22464;-70
2020/12/23 03:12:14;;;;;;;31.07;20.20;;;;;;;-2.79;86.55;100785.72;1839050;78;20899;-70
2020/12/23 03:14:43;;;;;;;32.48;20.10;;;;;;;-2.80;86.51;100780.19;1839122;78;20970;-70
2020/12/23 03:17:11;;;;;;;31.68;19.10;;;;;;;-2.79;86.53;100780.63;1839195;77;21052;-71
2020/12/23 03:19:41;;;;;;;34.83;20.50;;;;;;;-2.80;86.53;100775.09;1839126;77;21008;-72
2020/12/23 03:22:09;;;;;;;31.55;17.92;;;;;;;-2.81;86.36;100778.52;1839114;77;21360;-72
2020/12/23 03:24:38;;;;;;;28.80;18.73;;;;;;;-2.79;86.31;100775.95;1839047;78;20958;-72
2020/12/23 03:27:06;;;;;;;33.50;20.27;;;;;;;-2.78;86.26;100786.58;1839149;77;20922;-72
2020/12/23 03:29:35;;;;;;;32.00;19.57;;;;;;;-2.80;86.25;100775.09;1839061;78;21001;-70
2020/12/23 03:32:03;;;;;;;32.23;21.23;;;;;;;-2.81;86.25;100772.14;1839259;77;21001;-71
2020/12/23 03:34:31;;;;;;;31.73;19.40;;;;;;;-2.79;86.23;100767.02;1839118;78;21185;-70
2020/12/23 03:37:00;;;;;;;35.20;21.65;;;;;;;-2.79;86.21;100761.51;1839092;77;21025;-71
2020/12/23 03:39:28;;;;;;;32.63;21.48;;;;;;;-2.78;86.11;100770.86;1839130;78;20933;-71
2020/12/23 03:41:56;;;;;;;33.15;21.40;;;;;;;-2.79;86.13;100762.78;1839098;77;20882;-71
2020/12/23 03:44:25;;;;;;;33.13;19.37;;;;;;;-2.77;86.22;100753.45;1839160;78;21452;-71
2020/12/23 03:46:53;;;;;;;35.88;22.45;;;;;;;-2.76;86.05;100760.27;1839158;77;21342;-71
2020/12/23 03:49:21;;;;;;;30.92;20.17;;;;;;;-2.76;86.07;100756.44;1839036;78;20978;-71
2020/12/23 03:51:50;;;;;;;37.13;22.62;;;;;;;-2.75;85.99;100755.60;1839233;78;21777;-70
2020/12/23 03:54:18;;;;;;;49.90;28.17;;;;;;;-2.73;85.94;100755.20;1839102;78;20910;-71
2020/12/23 03:56:46;;;;;;;37.08;21.35;;;;;;;-2.71;85.90;100752.66;1839133;78;20922;-71
2020/12/23 03:59:14;;;;;;;39.38;24.02;;;;;;;-2.69;85.79;100756.08;1839108;78;21338;-71
2020/12/23 04:01:43;;;;;;;37.10;23.15;;;;;;;-2.69;85.65;100749.71;1839009;78;21021;-72
2020/12/23 04:04:11;;;;;;;33.73;20.70;;;;;;;-2.68;85.70;100748.87;1839082;78;20946;-72
2020/12/23 04:06:40;;;;;;;41.58;23.30;;;;;;;-2.65;85.62;100745.50;1839003;77;21037;-71
2020/12/23 04:09:09;;;;;;;33.80;21.02;;;;;;;-2.64;85.46;100749.33;1839155;77;20930;-72
2020/12/23 04:11:37;;;;;;;44.27;25.10;;;;;;;-2.64;85.50;100745.93;1839125;78;21226;-71
2020/12/23 04:14:06;;;;;;;40.17;24.55;;;;;;;-2.62;85.36;100744.25;1839053;78;21029;-71
2020/12/23 04:16:36;;;;;;;38.53;23.15;;;;;;;-2.63;85.43;100744.67;1839222;78;21444;-71
2020/12/23 04:19:04;;;;;;;35.33;22.10;;;;;;;-2.62;85.40;100737.45;1839194;77;20982;-71
2020/12/23 04:21:32;;;;;;;37.53;22.87;;;;;;;-2.60;85.38;100735.78;1839128;78;20993;-71
2020/12/23 04:24:00;;;;;;;31.87;20.17;;;;;;;-2.60;85.34;100738.33;1839064;78;21270;-71
2020/12/23 04:26:29;;;;;;;34.92;22.37;;;;;;;-2.59;85.29;100730.26;1839062;78;20930;-72
2020/12/23 04:28:57;;;;;;;39.35;24.18;;;;;;;-2.59;85.23;100735.36;1839225;78;21477;-72
2020/12/23 04:31:26;;;;;;;42.27;23.77;;;;;;;-2.59;85.30;100736.62;1839055;77;21385;-72
2020/12/23 04:33:54;;;;;;;36.53;23.87;;;;;;;-2.59;85.41;100727.70;1839127;78;20966;-71
2020/12/23 04:36:23;;;;;;;38.83;22.30;;;;;;;-2.57;85.65;100728.58;1839089;77;21183;-71
2020/12/23 04:38:51;;;;;;;36.98;23.87;;;;;;;-2.54;85.55;100727.33;1839028;77;21025;-73
2020/12/23 04:41:19;;;;;;;34.58;21.70;;;;;;;-2.55;85.45;100721.80;1839097;77;20926;-71
2020/12/23 04:43:47;;;;;;;35.45;21.07;;;;;;;-2.52;85.65;100728.20;1818441;78;21472;-72
2020/12/23 04:46:24;;;;;;;32.08;20.85;;;;;;;-2.50;85.74;100722.27;1839063;78;20890;-72
2020/12/23 04:48:57;;;;;;;30.88;20.95;;;;;;;-2.47;85.77;100726.54;1839123;78;21405;-72
2020/12/23 04:51:35;;;;;;;36.13;21.35;;;;;;;-2.43;85.96;100720.20;1839062;77;20926;-71
2020/12/23 04:54:06;;;;;;;31.40;20.68;;;;;;;-2.38;85.88;100722.34;1839190;78;20938;-72
2020/12/23 04:56:35;;;;;;;32.83;21.73;;;;;;;-2.32;86.00;100728.33;1839278;77;20946;-72
2020/12/23 04:59:04;;;;;;;32.63;20.25;;;;;;;-2.27;85.85;100727.52;1839274;78;20981;-71
2020/12/23 05:01:32;;;;;;;33.08;20.68;;;;;;;-2.24;85.34;100724.99;1839228;78;21173;-71
2020/12/23 05:04:00;;;;;;;30.25;19.17;;;;;;;-2.24;85.19;100721.16;1839145;78;20969;-72
2020/12/23 05:06:29;;;;;;;32.38;20.68;;;;;;;-2.23;85.12;100719.47;1842014;77;20950;-72
2020/12/23 05:08:57;;;;;;;34.33;21.02;;;;;;;-2.21;85.28;100727.56;1845209;77;20981;-72
2020/12/23 05:11:25;;;;;;;29.15;18.40;;;;;;;-2.18;85.25;100721.21;1845137;77;20926;-71
2020/12/23 05:13:54;;;;;;;31.80;18.92;;;;;;;-2.15;85.17;100724.20;1845099;77;21179;-71
2020/12/23 05:16:23;;;;;;;27.13;18.17;;;;;;;-2.12;85.14;100722.95;1845058;77;20965;-71
2020/12/23 05:18:56;;;;;;;35.25;20.55;;;;;;;-2.09;85.40;100716.59;1845191;77;21582;-71
2020/12/23 05:21:25;;;;;;;39.10;23.05;;;;;;;-2.05;85.24;100712.80;1845132;77;21005;-71
2020/12/23 05:23:54;;;;;;;33.15;21.57;;;;;;;-2.00;85.10;100716.66;1845118;77;20981;-71
2020/12/23 05:26:24;;;;;;;39.55;22.50;;;;;;;-1.96;84.93;100714.52;1845216;77;21343;-71
2020/12/23 05:28:53;;;;;;;38.85;23.07;;;;;;;-1.94;84.57;100705.59;1845051;77;21037;-72
2020/12/23 05:31:21;;;;;;;35.17;21.12;;;;;;;-1.95;84.49;100711.55;1845067;77;21057;-72
2020/12/23 05:33:49;;;;;;;30.17;19.42;;;;;;;-1.98;84.43;100710.25;1845160;77;20906;-72
2020/12/23 05:36:19;;;;;;;31.27;19.55;;;;;;;-2.00;84.43;100710.28;1845198;77;22189;-72
2020/12/23 05:38:48;;;;;;;31.40;20.57;;;;;;;-2.03;84.53;100704.73;1845111;77;21104;-71
2020/12/23 05:41:16;;;;;;;28.85;18.52;;;;;;;-2.06;84.80;100707.27;1845010;77;20902;-72
2020/12/23 05:43:45;;;;;;;29.02;18.85;;;;;;;-2.04;85.35;100709.41;1842288;77;20998;-72
2020/12/23 05:46:14;;;;;;;28.87;18.52;;;;;;;-2.00;85.32;100713.25;1826436;77;20985;-72
2020/12/23 05:48:42;;;;;;;32.48;20.90;;;;;;;-2.01;85.32;100711.12;1844234;77;20934;-74
2020/12/23 05:51:11;;;;;;;31.95;19.65;;;;;;;-2.00;85.47;100710.28;1843654;77;21578;-73
2020/12/23 05:53:40;;;;;;;25.90;17.00;;;;;;;-1.98;85.70;100708.98;1764004;81;21609;-73
2020/12/23 05:56:09;;;;;;;30.85;19.25;;;;;;;-1.96;85.60;100711.11;1843188;77;20978;-73
2020/12/23 05:58:39;;;;;;;27.82;17.45;;;;;;;-1.94;85.52;100706.45;1836908;76;21056;-74
2020/12/23 06:01:09;;;;;;;30.48;18.95;;;;;;;-1.91;85.63;100700.09;1831053;77;20962;-73
2020/12/23 06:03:55;;;;;;;26.23;17.35;;;;;;;-1.88;85.82;100695.42;1835385;76;21314;-73
2020/12/23 06:06:27;;;;;;;28.30;17.92;;;;;;;-1.80;85.84;100684.83;1843000;77;21048;-73
2020/12/23 06:09:03;;;;;;;27.02;17.30;;;;;;;-1.73;85.44;100678.91;1836009;77;21089;-72
2020/12/23 06:11:40;;;;;;;29.02;16.77;;;;;;;-1.70;84.90;100677.23;1821297;77;21147;-72
2020/12/23 06:14:23;;;;;;;25.80;17.75;;;;;;;-1.70;84.81;100669.98;1824868;78;21049;-71
2020/12/23 06:17:04;;;;;;;27.07;17.52;;;;;;;-1.70;84.57;100658.50;1825130;77;21238;-71
2020/12/23 06:19:39;;;;;;;34.00;20.25;;;;;;;-1.72;84.52;100652.53;1837714;77;21088;-72
2020/12/23 06:22:09;;;;;;;31.68;19.02;;;;;;;-1.74;84.50;100655.50;1837912;77;21559;-73
2020/12/23 06:24:39;;;;;;;32.40;19.82;;;;;;;-1.76;84.61;100645.29;1823623;78;21064;-74
2020/12/23 06:27:09;;;;;;;34.50;20.45;;;;;;;-1.74;84.66;100651.25;1811117;78;21057;-74
2020/12/23 06:32:24;;;;;;;32.48;20.60;;;;;;;-1.70;84.63;100649.56;1829354;78;21110;-71
2020/12/23 06:34:59;;;;;;;56.80;34.10;;;;;;;-1.69;84.60;100639.78;1821883;78;21076;-70
2020/12/23 06:37:31;;;;;;;66.95;37.60;;;;;;;-1.67;84.31;100638.52;1837872;78;21688;-73
2020/12/23 06:40:00;;;;;;;39.95;23.27;;;;;;;-1.69;84.24;100648.72;1838156;77;20958;-72
2020/12/23 06:42:29;;;;;;;30.75;20.40;;;;;;;-1.69;84.34;100647.02;1815523;78;22030;-71
2020/12/23 06:45:05;;;;;;;27.98;17.25;;;;;;;-1.69;84.22;100642.34;1828845;77;21033;-71
2020/12/23 06:47:36;;;;;;;28.35;18.37;;;;;;;-1.69;84.22;100641.06;1824555;77;21051;-69
2020/12/23 06:50:27;;;;;;;30.17;18.27;;;;;;;-1.69;84.13;100637.23;1828607;78;21607;-75
2020/12/23 06:52:56;;;;;;;29.30;18.75;;;;;;;-1.68;84.24;100633.83;1827249;78;21198;-74
2020/12/23 06:55:46;;;;;;;30.00;19.73;;;;;;;-1.67;84.25;100631.70;1832977;78;21186;-74
2020/12/23 06:58:39;;;;;;;29.52;19.50;;;;;;;-1.66;84.17;100616.81;1823859;78;21080;-72
2020/12/23 07:01:21;;;;;;;28.95;18.02;;;;;;;-1.63;84.17;100615.97;1831133;78;20982;-71
2020/12/23 07:03:54;;;;;;;30.62;18.67;;;;;;;-1.60;84.10;100615.53;1828881;78;20974;-74
2020/12/23 07:06:30;;;;;;;28.98;18.42;;;;;;;-1.56;84.06;100612.14;1829203;77;20989;-72
2020/12/23 07:09:01;;;;;;;31.50;19.20;;;;;;;-1.56;83.75;100616.39;1849002;77;21184;-72
2020/12/23 07:11:33;;;;;;;32.05;20.05;;;;;;;-1.56;84.06;100621.50;1851687;77;20965;-73
2020/12/23 07:14:04;;;;;;;27.67;18.85;;;;;;;-1.54;84.17;100614.69;1853122;77;21028;-73
2020/12/23 07:16:40;;;;;;;36.68;20.52;;;;;;;-1.51;84.12;100609.17;1853892;77;20953;-74
2020/12/23 07:19:09;;;;;;;31.40;20.32;;;;;;;-1.47;83.99;100617.27;1852752;77;21670;-71
2020/12/23 07:21:37;;;;;;;45.23;22.55;;;;;;;-1.46;83.80;100610.46;1853890;77;21550;-74
2020/12/23 07:24:06;;;;;;;38.33;21.50;;;;;;;-1.46;83.82;100617.70;1851471;77;20937;-78
2020/12/23 07:26:39;;;;;;;37.13;21.50;;;;;;;-1.46;83.80;100611.73;1816492;77;20974;-73
2020/12/23 07:29:09;;;;;;;33.15;21.23;;;;;;;-1.44;83.85;100621.11;1854640;77;20977;-73
2020/12/23 07:31:40;;;;;;;37.33;21.33;;;;;;;-1.42;83.58;100627.50;1792537;78;21558;-74
2020/12/23 07:34:08;;;;;;;38.53;23.77;;;;;;;-1.44;83.61;100622.81;1849660;77;21336;-74
2020/12/23 07:36:36;;;;;;;48.40;27.95;;;;;;;-1.46;83.63;100623.23;1819781;77;21093;-74
2020/12/23 07:39:05;;;;;;;36.73;24.47;;;;;;;-1.47;83.65;100622.80;1794630;79;33414;-73
2020/12/23 07:41:34;;;;;;;34.88;20.80;;;;;;;-1.45;83.99;100629.62;1847825;77;21060;-74
2020/12/23 07:44:04;;;;;;;35.43;19.42;;;;;;;-1.42;83.89;100618.13;1853694;77;21001;-74
2020/12/23 07:46:32;;;;;;;30.77;19.92;;;;;;;-1.41;83.73;100614.73;1852006;77;21401;-74
2020/12/23 07:49:01;;;;;;;33.08;20.92;;;;;;;-1.40;83.67;100612.61;1848753;77;21793;-71
2020/12/23 07:51:29;;;;;;;39.03;23.40;;;;;;;-1.39;83.63;100613.45;1852760;77;20997;-72
2020/12/23 07:53:59;;;;;;;33.25;21.65;;;;;;;-1.39;83.70;100616.86;1854824;77;20929;-74
2020/12/23 07:56:28;;;;;;;38.20;22.82;;;;;;;-1.37;83.69;100620.70;1856519;77;21582;-72
2020/12/23 07:58:56;;;;;;;51.13;25.35;;;;;;;-1.36;83.72;100620.70;1856530;77;22215;-71
2020/12/23 08:01:25;;;;;;;31.52;19.23;;;;;;;-1.34;83.76;100615.59;1851758;77;21052;-73
2020/12/23 08:03:53;;;;;;;46.20;22.40;;;;;;;-1.32;83.73;100610.49;1797949;78;21044;-72
2020/12/23 08:06:25;;;;;;;32.67;19.75;;;;;;;-1.30;83.68;100610.07;1855483;77;21076;-70
2020/12/23 08:08:54;;;;;;;39.98;21.90;;;;;;;-1.29;83.60;100611.35;1795199;79;20991;-75
2020/12/23 08:11:22;;;;;;;44.55;23.42;;;;;;;-1.29;83.56;100610.50;1825944;78;21181;-72
2020/12/23 08:13:51;;;;;;;35.30;22.15;;;;;;;-1.29;83.45;100611.35;1826382;78;21660;-68
2020/12/23 08:16:19;;;;;;;35.75;21.62;;;;;;;-1.29;83.55;100614.33;1819669;78;20924;-68
2020/12/23 08:18:48;;;;;;;43.08;23.98;;;;;;;-1.29;83.46;100607.94;1831484;78;21012;-68
2020/12/23 08:21:17;;;;;;;38.33;21.97;;;;;;;-1.29;83.53;100609.22;1750648;78;21043;-67
2020/12/23 08:23:52;;;;;;;46.35;25.92;;;;;;;-1.30;83.57;100608.79;1815234;78;21926;-68
2020/12/23 08:26:20;;;;;;;38.35;23.62;;;;;;;-1.29;83.66;100602.83;1801137;79;21015;-67
2020/12/23 08:28:49;;;;;;;37.83;23.27;;;;;;;-1.28;83.67;100601.98;1802549;78;21648;-69
2020/12/23 08:31:23;;;;;;;34.18;20.05;;;;;;;-1.27;83.62;100599.86;1826705;78;21114;-67
2020/12/23 08:33:52;;;;;;;32.67;20.23;;;;;;;-1.26;83.61;100598.58;1833126;78;20987;-67
2020/12/23 08:36:21;;;;;;;37.60;22.90;;;;;;;-1.25;83.62;100595.17;1808917;78;21179;-67
2020/12/23 08:38:49;;;;;;;38.53;23.60;;;;;;;-1.22;83.73;100586.66;1742430;81;21589;-72
2020/12/23 08:41:20;;;;;;;34.23;21.42;;;;;;;-1.18;83.64;100584.50;1747769;81;21546;-71
2020/12/23 08:43:49;;;;;;;32.35;20.43;;;;;;;-1.13;83.96;100582.38;1770619;80;21007;-70
2020/12/23 08:46:23;;;;;;;31.02;18.10;;;;;;;-1.06;84.23;100575.14;1815395;78;21594;-69
2020/12/23 08:48:53;;;;;;;29.55;17.65;;;;;;;-1.01;83.68;100572.16;1796155;79;21067;-72
2020/12/23 08:51:25;;;;;;;28.70;18.15;;;;;;;-0.99;83.21;100580.26;1834040;77;21067;-74
2020/12/23 08:53:54;;;;;;;33.15;20.82;;;;;;;-1.02;83.08;100573.44;1834194;78;21529;-84
2020/12/23 08:56:29;;;;;;;30.60;18.62;;;;;;;-1.02;83.04;100568.33;1834161;78;20990;-66
2020/12/23 08:59:05;;;;;;;29.63;18.75;;;;;;;-1.03;82.89;100570.45;1833826;77;21597;-72
2020/12/23 09:01:35;;;;;;;;;;;;;;;-1.06;82.89;100558.95;1773081;79;21193;-71
2020/12/23 09:04:11;;;;;;;35.48;20.48;;;;;;;-1.06;83.03;100554.70;1833401;78;20197;-76
2020/12/23 09:06:44;;;;;;;;;;;;;;;-1.07;83.02;100558.53;1835982;77;21345;-73
2020/12/23 09:09:20;;;;;;;29.52;19.30;;;;;;;-1.05;82.97;100550.44;1802754;78;20732;-77
2020/12/23 09:11:53;;;;;;;31.90;18.60;;;;;;;-1.05;83.20;100547.88;1828712;78;21545;-77
2020/12/23 09:14:34;;;;;;;29.52;20.25;;;;;;;-1.03;83.16;100548.73;1834105;78;21517;-78
2020/12/23 09:17:14;;;;;;;33.73;21.35;;;;;;;-1.04;82.97;100543.20;1834024;77;21011;-78
2020/12/23 09:20:02;;;;;;;33.92;21.02;;;;;;;-1.05;83.15;100533.41;1812018;77;21055;-74
2020/12/23 09:22:34;;;;;;;33.85;21.12;;;;;;;-1.04;83.17;100530.42;1800281;79;21572;-71
2020/12/23 09:25:22;;;;;;;33.80;20.45;;;;;;;-1.04;83.11;100527.86;1801171;79;21004;-70
2020/12/23 09:27:56;;;;;;;33.88;21.17;;;;;;;-1.04;83.40;100526.59;1830180;78;21250;-70
2020/12/23 09:30:44;;;;;;;34.60;17.77;;;;;;;-1.04;83.49;100521.48;1823182;78;21023;-71
2020/12/23 09:33:16;;;;;;;34.50;20.27;;;;;;;-1.05;83.65;100518.49;1817247;78;21592;-71
2020/12/23 09:35:47;;;;;;;32.58;19.75;;;;;;;-1.06;83.89;100519.34;1801227;79;21011;-71
2020/12/23 09:38:34;;;;;;;31.85;19.77;;;;;;;-1.07;84.17;100521.48;1821300;78;21505;-69
2020/12/23 09:40:59;;;;;;;36.45;21.80;;;;;;;-1.04;84.29;100513.81;1810434;78;21808;-70
2020/12/23 09:43:28;;;;;;;31.37;20.45;;;;;;;-1.05;84.49;100514.23;1813220;78;21008;-71
2020/12/23 09:45:59;;;;;;;28.00;18.20;;;;;;;-1.04;84.76;100506.14;1816572;78;21689;-69
2020/12/23 09:48:28;;;;;;;30.27;19.37;;;;;;;-1.02;85.09;100504.44;1753465;81;21679;-69
2020/12/23 09:50:56;;;;;;;29.23;19.30;;;;;;;-1.02;85.65;100491.23;1751654;81;21597;-68
2020/12/23 09:53:26;;;;;;;32.60;20.72;;;;;;;-1.03;85.94;100488.67;1769757;81;21605;-69
2020/12/23 09:55:56;;;;;;;30.57;20.27;;;;;;;-1.04;86.04;100483.14;1823276;78;21505;-70
2020/12/23 09:58:27;;;;;;;27.37;17.87;;;;;;;-1.05;86.25;100479.73;1779111;79;20998;-71
2020/12/23 10:00:55;;;;;;;26.15;16.48;;;;;;;-1.04;86.44;100466.53;1815902;78;20983;-71
2020/12/23 10:03:24;;;;;;;26.42;18.37;;;;;;;-1.04;87.02;100464.82;1814051;76;21545;-71
2020/12/23 10:05:53;;;;;;;28.45;18.02;;;;;;;-1.06;87.17;100465.68;1830189;78;21126;-71
2020/12/23 10:08:22;;;;;;;26.90;18.42;;;;;;;-1.08;87.55;100471.22;1813379;77;21618;-70
2020/12/23 10:10:50;;;;;;;29.05;18.92;;;;;;;-1.06;87.69;100467.81;1831033;76;21156;-70
2020/12/23 10:13:18;;;;;;;28.87;18.98;;;;;;;-1.04;87.77;100460.98;1844487;77;20882;-71
2020/12/23 10:15:47;;;;;;;25.23;17.12;;;;;;;-1.02;87.75;100469.50;1844714;77;20911;-72
2020/12/23 10:18:15;;;;;;;29.72;20.27;;;;;;;-1.01;87.86;100460.98;1808234;77;21299;-71
2020/12/23 10:20:43;;;;;;;30.08;19.90;;;;;;;-0.97;87.88;100459.70;1841893;76;21547;-70
2020/12/23 10:23:12;;;;;;;26.93;18.35;;;;;;;-0.94;87.89;100455.86;1815303;76;20934;-70
2020/12/23 10:25:40;;;;;;;25.65;17.12;;;;;;;-0.91;87.98;100451.59;1812739;76;20918;-70
2020/12/23 10:28:09;;;;;;;28.15;18.65;;;;;;;-0.90;88.01;100453.30;1832144;77;21594;-70
2020/12/23 10:30:38;;;;;;;26.75;17.25;;;;;;;-0.88;88.01;100451.59;1841458;77;21796;-72
2020/12/23 10:33:08;;;;;;;29.02;18.95;;;;;;;-0.88;88.30;100443.92;1831346;78;21009;-74
2020/12/23 10:35:37;;;;;;;26.95;18.65;;;;;;;-0.84;88.31;100454.56;1834557;77;20981;-77
2020/12/23 10:38:05;;;;;;;25.48;18.17;;;;;;;-0.81;88.43;100452.42;1840328;76;20879;-74
2020/12/23 10:40:33;;;;;;;27.90;19.27;;;;;;;-0.80;88.57;100445.99;1850912;76;20933;-87
2020/12/23 10:43:04;;;;;;;28.80;18.45;;;;;;;-0.79;88.58;100443.01;1830066;76;21179;-74
2020/12/23 10:45:33;;;;;;;26.17;17.50;;;;;;;-0.77;88.55;100437.46;1839030;77;20997;-75
2020/12/23 10:48:02;;;;;;;25.32;18.10;;;;;;;-0.81;88.39;100436.66;1824503;77;20923;-75
2020/12/23 10:50:30;;;;;;;25.48;18.45;;;;;;;-0.83;88.47;100434.95;1839773;76;20921;-74
2020/12/23 10:52:59;;;;;;;27.40;17.42;;;;;;;-0.86;88.65;100446.05;1833556;77;21392;-76
2020/12/23 10:55:28;;;;;;;26.80;18.23;;;;;;;-0.83;89.06;100442.20;1837311;77;21353;-77
2020/12/23 10:57:56;;;;;;;26.87;17.73;;;;;;;-0.80;88.94;100433.67;1812198;77;20981;-68
2020/12/23 11:00:25;;;;;;;26.60;18.10;;;;;;;-0.78;88.85;100437.04;1838246;77;21013;-73
2020/12/23 11:02:53;;;;;;;28.02;18.52;;;;;;;-0.79;88.85;100429.80;1844451;77;20973;-72
2020/12/23 11:05:22;;;;;;;26.77;17.65;;;;;;;-0.77;88.81;100428.09;1841818;77;21130;-70
2020/12/23 11:07:52;;;;;;;26.75;17.87;;;;;;;-0.72;88.91;100428.92;1829225;77;21364;-71
2020/12/23 11:10:21;;;;;;;25.62;17.75;;;;;;;-0.68;88.75;100428.48;1813589;76;21328;-70
2020/12/23 11:12:49;;;;;;;27.27;18.37;;;;;;;-0.64;88.69;100428.05;1811119;79;20934;-71
2020/12/23 11:15:17;;;;;;;27.13;17.52;;;;;;;-0.63;88.50;100422.92;1810857;79;21060;-71
2020/12/23 11:17:46;;;;;;;24.25;16.52;;;;;;;-0.61;88.30;100419.94;1783321;79;20934;-71
2020/12/23 11:20:15;;;;;;;25.75;18.15;;;;;;;-0.61;88.30;100419.08;1811849;79;21184;-72
2020/12/23 11:22:43;;;;;;;25.35;17.85;;;;;;;-0.61;88.24;100416.53;1820056;76;21004;-72
2020/12/23 11:25:12;;;;;;;28.65;18.00;;;;;;;-0.61;88.42;100413.54;1836976;77;21037;-73